VOI1330 MMGL-MMAA
Flight info
| Callsign | VOI1330 |
|---|---|
| Flight time | 1h 18m |
| Altitude | 33000 |
| Route | EMIRI1B EMIRI DCT ZIH J1 AVURO AVURO1B |
| Aircraft | A320/M-SDE3FGHIRWY/LB1 |
Departure
| Time | 2026-04-23 19:54 |
|---|---|
| Airport | Guadalajara International Airport (MMGL) |
Arrival
| Time | 2026-04-23 21:12 |
|---|---|
| Airport | General Juan N. Álvarez International Airport (MMAA) |
| Time | Latitude | Longitude | Altitude | Speed | Heading |
|---|---|---|---|---|---|
| 2026-04-23 19:28 | 20.52501 | -103.30301 | 5020 ft | 0 kts | 19° |
| 2026-04-23 19:44 | 20.52491 | -103.30305 | 5016 ft | 4 kts | 21° |
| 2026-04-23 19:45 | 20.52466 | -103.30317 | 5016 ft | 4 kts | 33° |
| 2026-04-23 19:45 | 20.52447 | -103.30335 | 5019 ft | 4 kts | 72° |
| 2026-04-23 19:45 | 20.52445 | -103.30348 | 5019 ft | 0 kts | 109° |
| 2026-04-23 19:47 | 20.52442 | -103.30338 | 5019 ft | 2 kts | 109° |
| 2026-04-23 19:47 | 20.52435 | -103.30316 | 5015 ft | 4 kts | 109° |
| 2026-04-23 19:48 | 20.52424 | -103.30282 | 5019 ft | 6 kts | 109° |
| 2026-04-23 19:48 | 20.52408 | -103.30238 | 5017 ft | 7 kts | 120° |
| 2026-04-23 19:48 | 20.52363 | -103.30225 | 5016 ft | 7 kts | 187° |
| 2026-04-23 19:48 | 20.52313 | -103.30244 | 5019 ft | 8 kts | 199° |
| 2026-04-23 19:49 | 20.52253 | -103.30266 | 5019 ft | 10 kts | 198° |
| 2026-04-23 19:49 | 20.52189 | -103.30264 | 5019 ft | 10 kts | 142° |
| 2026-04-23 19:49 | 20.52163 | -103.30195 | 5017 ft | 11 kts | 109° |
| 2026-04-23 19:49 | 20.52138 | -103.30116 | 5019 ft | 12 kts | 109° |
| 2026-04-23 19:50 | 20.52110 | -103.30032 | 5019 ft | 13 kts | 109° |
| 2026-04-23 19:50 | 20.52080 | -103.29941 | 5016 ft | 13 kts | 109° |
| 2026-04-23 19:50 | 20.52036 | -103.29853 | 5019 ft | 14 kts | 127° |
| 2026-04-23 19:50 | 20.51979 | -103.29770 | 5019 ft | 14 kts | 127° |
| 2026-04-23 19:51 | 20.51919 | -103.29684 | 5018 ft | 15 kts | 126° |
| 2026-04-23 19:51 | 20.51857 | -103.29593 | 5020 ft | 15 kts | 124° |
| 2026-04-23 19:51 | 20.51795 | -103.29498 | 5020 ft | 16 kts | 126° |
| 2026-04-23 19:51 | 20.51729 | -103.29401 | 5020 ft | 16 kts | 128° |
| 2026-04-23 19:52 | 20.51669 | -103.29318 | 5020 ft | 11 kts | 126° |
| 2026-04-23 19:52 | 20.51620 | -103.29247 | 5020 ft | 12 kts | 126° |
| 2026-04-23 19:52 | 20.51549 | -103.29215 | 5018 ft | 12 kts | 192° |
| 2026-04-23 19:52 | 20.51467 | -103.29250 | 5020 ft | 13 kts | 203° |
| 2026-04-23 19:53 | 20.51432 | -103.29325 | 5020 ft | 15 kts | 289° |
| 2026-04-23 19:53 | 20.51505 | -103.29502 | 5022 ft | 44 kts | 294° |
| 2026-04-23 19:53 | 20.51718 | -103.30008 | 5021 ft | 103 kts | 294° |
| 2026-04-23 19:53 | 20.52077 | -103.30860 | 5024 ft | 147 kts | 294° |
| 2026-04-23 19:54 | 20.52547 | -103.31975 | 5151 ft | 174 kts | 294° |
| 2026-04-23 19:54 | 20.53036 | -103.33144 | 5951 ft | 173 kts | 292° |
| 2026-04-23 19:54 | 20.53516 | -103.34335 | 6296 ft | 183 kts | 293° |
| 2026-04-23 19:54 | 20.54061 | -103.35641 | 6426 ft | 203 kts | 295° |
| 2026-04-23 19:55 | 20.54677 | -103.37092 | 6557 ft | 228 kts | 295° |
| 2026-04-23 19:55 | 20.55351 | -103.38680 | 6975 ft | 239 kts | 294° |
| 2026-04-23 19:55 | 20.56037 | -103.40304 | 7632 ft | 241 kts | 293° |
| 2026-04-23 19:55 | 20.56711 | -103.41956 | 8170 ft | 251 kts | 289° |
| 2026-04-23 19:56 | 20.57115 | -103.43847 | 8463 ft | 272 kts | 277° |
| 2026-04-23 19:56 | 20.57269 | -103.45887 | 9052 ft | 279 kts | 273° |
| 2026-04-23 19:56 | 20.57584 | -103.47854 | 10079 ft | 267 kts | 289° |
| 2026-04-23 19:56 | 20.58190 | -103.49781 | 10251 ft | 289 kts | 279° |
| 2026-04-23 19:57 | 20.57997 | -103.51975 | 10367 ft | 313 kts | 250° |
| 2026-04-23 19:57 | 20.56698 | -103.53911 | 10550 ft | 334 kts | 220° |
| 2026-04-23 19:57 | 20.54671 | -103.55084 | 11380 ft | 319 kts | 207° |
| 2026-04-23 19:57 | 20.52936 | -103.56362 | 12206 ft | 293 kts | 234° |
| 2026-04-23 19:58 | 20.52067 | -103.58241 | 13134 ft | 284 kts | 252° |
| 2026-04-23 19:58 | 20.51173 | -103.60205 | 13270 ft | 308 kts | 232° |
| 2026-04-23 19:58 | 20.49398 | -103.61607 | 13381 ft | 333 kts | 203° |
| 2026-04-23 19:58 | 20.47042 | -103.61978 | 13549 ft | 356 kts | 176° |
| 2026-04-23 19:59 | 20.44580 | -103.61424 | 13978 ft | 366 kts | 164° |
| 2026-04-23 19:59 | 20.42163 | -103.60505 | 14474 ft | 371 kts | 160° |
| 2026-04-23 19:59 | 20.39872 | -103.59197 | 14957 ft | 378 kts | 145° |
| 2026-04-23 19:59 | 20.37965 | -103.57525 | 15444 ft | 383 kts | 138° |
| 2026-04-23 20:00 | 20.36106 | -103.55475 | 15962 ft | 387 kts | 130° |
| 2026-04-23 20:00 | 20.34568 | -103.53110 | 16494 ft | 391 kts | 120° |
| 2026-04-23 20:00 | 20.33218 | -103.50582 | 17014 ft | 394 kts | 119° |
| 2026-04-23 20:00 | 20.31901 | -103.48003 | 17537 ft | 398 kts | 117° |
| 2026-04-23 20:01 | 20.30606 | -103.45386 | 18051 ft | 401 kts | 117° |
| 2026-04-23 20:01 | 20.29319 | -103.42740 | 18531 ft | 404 kts | 116° |
| 2026-04-23 20:01 | 20.28025 | -103.40065 | 18971 ft | 408 kts | 116° |
| 2026-04-23 20:01 | 20.26738 | -103.37408 | 19404 ft | 410 kts | 117° |
| 2026-04-23 20:02 | 20.25418 | -103.34703 | 19861 ft | 413 kts | 117° |
| 2026-04-23 20:02 | 20.24083 | -103.31984 | 20321 ft | 416 kts | 117° |
| 2026-04-23 20:02 | 20.22736 | -103.29245 | 20782 ft | 419 kts | 117° |
| 2026-04-23 20:02 | 20.21382 | -103.26492 | 21225 ft | 421 kts | 117° |
| 2026-04-23 20:03 | 20.20016 | -103.23720 | 21670 ft | 424 kts | 117° |
| 2026-04-23 20:03 | 20.18638 | -103.20934 | 22105 ft | 427 kts | 117° |
| 2026-04-23 20:03 | 20.17248 | -103.18131 | 22544 ft | 430 kts | 117° |
| 2026-04-23 20:03 | 20.15849 | -103.15309 | 22982 ft | 432 kts | 117° |
| 2026-04-23 20:04 | 20.14442 | -103.12469 | 23416 ft | 435 kts | 117° |
| 2026-04-23 20:04 | 20.12902 | -103.09688 | 23779 ft | 438 kts | 125° |
| 2026-04-23 20:04 | 20.10941 | -103.07196 | 24139 ft | 441 kts | 135° |
| 2026-04-23 20:04 | 20.08598 | -103.05082 | 24485 ft | 443 kts | 144° |
| 2026-04-23 20:05 | 20.06101 | -103.03148 | 24826 ft | 445 kts | 144° |
| 2026-04-23 20:05 | 20.03594 | -103.01204 | 25169 ft | 447 kts | 144° |
| 2026-04-23 20:05 | 20.01074 | -102.99249 | 25514 ft | 450 kts | 144° |
| 2026-04-23 20:05 | 19.98558 | -102.97257 | 25859 ft | 452 kts | 140° |
| 2026-04-23 20:06 | 19.96297 | -102.94930 | 26190 ft | 454 kts | 130° |
| 2026-04-23 20:06 | 19.94432 | -102.92230 | 26514 ft | 455 kts | 120° |
| 2026-04-23 20:06 | 19.93009 | -102.89225 | 26830 ft | 456 kts | 111° |
| 2026-04-23 20:06 | 19.91829 | -102.86095 | 27145 ft | 458 kts | 110° |
| 2026-04-23 20:07 | 19.90639 | -102.82949 | 27459 ft | 460 kts | 111° |
| 2026-04-23 20:07 | 19.89442 | -102.79793 | 27777 ft | 462 kts | 111° |
| 2026-04-23 20:07 | 19.88236 | -102.76621 | 28104 ft | 464 kts | 111° |
| 2026-04-23 20:07 | 19.87021 | -102.73431 | 28428 ft | 467 kts | 111° |
| 2026-04-23 20:08 | 19.85800 | -102.70228 | 28750 ft | 469 kts | 111° |
| 2026-04-23 20:08 | 19.84573 | -102.67011 | 29079 ft | 471 kts | 111° |
| 2026-04-23 20:08 | 19.83348 | -102.63820 | 29398 ft | 474 kts | 112° |
| 2026-04-23 20:08 | 19.81803 | -102.60723 | 29709 ft | 477 kts | 123° |
| 2026-04-23 20:09 | 19.79775 | -102.57931 | 30026 ft | 479 kts | 133° |
| 2026-04-23 20:09 | 19.77325 | -102.55533 | 30322 ft | 480 kts | 143° |
| 2026-04-23 20:09 | 19.74534 | -102.53604 | 30712 ft | 478 kts | 153° |
| 2026-04-23 20:09 | 19.71544 | -102.52068 | 31104 ft | 477 kts | 155° |
| 2026-04-23 20:10 | 19.69518 | -102.51053 | 31368 ft | 477 kts | 155° |
| 2026-04-23 20:10 | 19.65631 | -102.49109 | 31902 ft | 475 kts | 155° |
| 2026-04-23 20:10 | 19.62639 | -102.47615 | 32298 ft | 475 kts | 155° |
| 2026-04-23 20:10 | 19.59651 | -102.46122 | 32698 ft | 474 kts | 155° |
| 2026-04-23 20:11 | 19.56662 | -102.44627 | 32928 ft | 475 kts | 155° |
| 2026-04-23 20:11 | 19.50713 | -102.41646 | 32966 ft | 472 kts | 155° |
| 2026-04-23 20:12 | 19.44777 | -102.38675 | 32985 ft | 471 kts | 155° |
| 2026-04-23 20:12 | 19.38849 | -102.35716 | 33004 ft | 471 kts | 155° |
| 2026-04-23 20:13 | 19.32917 | -102.32765 | 33015 ft | 471 kts | 155° |
| 2026-04-23 20:13 | 19.26989 | -102.29815 | 33009 ft | 471 kts | 155° |
| 2026-04-23 20:14 | 19.21058 | -102.26860 | 32994 ft | 471 kts | 155° |
| 2026-04-23 20:14 | 19.15137 | -102.23905 | 32963 ft | 471 kts | 155° |
| 2026-04-23 20:15 | 19.09252 | -102.20971 | 32908 ft | 471 kts | 155° |
| 2026-04-23 20:15 | 19.03326 | -102.18034 | 32877 ft | 471 kts | 155° |
| 2026-04-23 20:16 | 18.97545 | -102.15170 | 32871 ft | 471 kts | 155° |
| 2026-04-23 20:16 | 18.91618 | -102.12231 | 32864 ft | 471 kts | 155° |
| 2026-04-23 20:17 | 18.85694 | -102.09292 | 32864 ft | 470 kts | 155° |
| 2026-04-23 20:17 | 18.79773 | -102.06364 | 32864 ft | 470 kts | 155° |
| 2026-04-23 20:18 | 18.73849 | -102.03434 | 32866 ft | 470 kts | 155° |
| 2026-04-23 20:18 | 18.67929 | -102.00508 | 32864 ft | 470 kts | 155° |
| 2026-04-23 20:19 | 18.62005 | -101.97584 | 32866 ft | 470 kts | 155° |
| 2026-04-23 20:19 | 18.56125 | -101.94682 | 32872 ft | 470 kts | 155° |
| 2026-04-23 20:20 | 18.50202 | -101.91757 | 32877 ft | 470 kts | 155° |
| 2026-04-23 20:20 | 18.44286 | -101.88833 | 32883 ft | 470 kts | 155° |
| 2026-04-23 20:21 | 18.38365 | -101.85918 | 32888 ft | 470 kts | 155° |
| 2026-04-23 20:21 | 18.32447 | -101.83002 | 32890 ft | 470 kts | 154° |
| 2026-04-23 20:22 | 18.26655 | -101.80150 | 32897 ft | 470 kts | 154° |
| 2026-04-23 20:22 | 18.20736 | -101.77244 | 32900 ft | 470 kts | 154° |
| 2026-04-23 20:23 | 18.14806 | -101.74337 | 32905 ft | 470 kts | 154° |
| 2026-04-23 20:23 | 18.08874 | -101.71430 | 32912 ft | 471 kts | 154° |
| 2026-04-23 20:24 | 18.02938 | -101.68517 | 32917 ft | 471 kts | 154° |
| 2026-04-23 20:24 | 17.96993 | -101.65603 | 32930 ft | 471 kts | 154° |
| 2026-04-23 20:25 | 17.91093 | -101.62709 | 32933 ft | 471 kts | 154° |
| 2026-04-23 20:25 | 17.85161 | -101.59805 | 32928 ft | 470 kts | 154° |
| 2026-04-23 20:26 | 17.79230 | -101.56907 | 32921 ft | 470 kts | 154° |
| 2026-04-23 20:26 | 17.73304 | -101.54015 | 32913 ft | 469 kts | 154° |
| 2026-04-23 20:27 | 17.67384 | -101.51130 | 32904 ft | 469 kts | 154° |
| 2026-04-23 20:27 | 17.61863 | -101.47553 | 32906 ft | 466 kts | 137° |
| 2026-04-23 20:28 | 17.57773 | -101.42360 | 32903 ft | 461 kts | 117° |
| 2026-04-23 20:28 | 17.54861 | -101.36377 | 32895 ft | 461 kts | 115° |
| 2026-04-23 20:29 | 17.51972 | -101.30429 | 32901 ft | 462 kts | 115° |
| 2026-04-23 20:29 | 17.49084 | -101.24520 | 32912 ft | 462 kts | 115° |
| 2026-04-23 20:30 | 17.46167 | -101.18521 | 32789 ft | 461 kts | 115° |
| 2026-04-23 20:30 | 17.43280 | -101.12569 | 32279 ft | 455 kts | 115° |
| 2026-04-23 20:30 | 17.41853 | -101.09625 | 31768 ft | 452 kts | 115° |
| 2026-04-23 20:31 | 17.40427 | -101.06694 | 31239 ft | 451 kts | 115° |
| 2026-04-23 20:31 | 17.39006 | -101.03779 | 30707 ft | 449 kts | 115° |
| 2026-04-23 20:31 | 17.37587 | -101.00865 | 30177 ft | 448 kts | 115° |
| 2026-04-23 20:31 | 17.36173 | -100.97967 | 29601 ft | 447 kts | 115° |
| 2026-04-23 20:32 | 17.34762 | -100.95082 | 29083 ft | 443 kts | 115° |
| 2026-04-23 20:32 | 17.33363 | -100.92220 | 28566 ft | 440 kts | 115° |
| 2026-04-23 20:32 | 17.31977 | -100.89376 | 28064 ft | 437 kts | 115° |
| 2026-04-23 20:32 | 17.30600 | -100.86553 | 27570 ft | 434 kts | 115° |
| 2026-04-23 20:33 | 17.29229 | -100.83746 | 27081 ft | 432 kts | 115° |
| 2026-04-23 20:33 | 17.27865 | -100.80955 | 26612 ft | 429 kts | 115° |
| 2026-04-23 20:33 | 17.26506 | -100.78181 | 26137 ft | 427 kts | 115° |
| 2026-04-23 20:33 | 17.25156 | -100.75424 | 25691 ft | 425 kts | 115° |
| 2026-04-23 20:34 | 17.23810 | -100.72676 | 25228 ft | 424 kts | 115° |
| 2026-04-23 20:34 | 17.22469 | -100.69939 | 24786 ft | 422 kts | 115° |
| 2026-04-23 20:34 | 17.21135 | -100.67215 | 24355 ft | 420 kts | 115° |
| 2026-04-23 20:34 | 17.19808 | -100.64501 | 23911 ft | 419 kts | 115° |
| 2026-04-23 20:35 | 17.18500 | -100.61830 | 23462 ft | 418 kts | 115° |
| 2026-04-23 20:35 | 17.17174 | -100.59126 | 22954 ft | 417 kts | 115° |
| 2026-04-23 20:35 | 17.15856 | -100.56433 | 22491 ft | 415 kts | 115° |
| 2026-04-23 20:35 | 17.14545 | -100.53758 | 22022 ft | 413 kts | 115° |
| 2026-04-23 20:36 | 17.13235 | -100.51090 | 21542 ft | 411 kts | 115° |
| 2026-04-23 20:36 | 17.11935 | -100.48444 | 21139 ft | 407 kts | 115° |
| 2026-04-23 20:36 | 17.10643 | -100.45812 | 20727 ft | 404 kts | 115° |
| 2026-04-23 20:36 | 17.09360 | -100.43199 | 20175 ft | 405 kts | 115° |
| 2026-04-23 20:37 | 17.08086 | -100.40609 | 19869 ft | 398 kts | 115° |
| 2026-04-23 20:37 | 17.06821 | -100.38043 | 19400 ft | 396 kts | 115° |
| 2026-04-23 20:37 | 17.05564 | -100.35494 | 18952 ft | 393 kts | 115° |
| 2026-04-23 20:37 | 17.04317 | -100.32962 | 18510 ft | 391 kts | 115° |
| 2026-04-23 20:38 | 17.03077 | -100.30445 | 18031 ft | 388 kts | 115° |
| 2026-04-23 20:38 | 17.01845 | -100.27945 | 17519 ft | 385 kts | 115° |
| 2026-04-23 20:38 | 17.00622 | -100.25464 | 17034 ft | 383 kts | 115° |
| 2026-04-23 20:38 | 16.99423 | -100.22997 | 16576 ft | 379 kts | 112° |
| 2026-04-23 20:39 | 16.98536 | -100.20427 | 16115 ft | 375 kts | 106° |
| 2026-04-23 20:39 | 16.97752 | -100.17879 | 15687 ft | 372 kts | 106° |
| 2026-04-23 20:39 | 16.96959 | -100.15314 | 15230 ft | 370 kts | 106° |
| 2026-04-23 20:39 | 16.96171 | -100.12770 | 14785 ft | 367 kts | 107° |
| 2026-04-23 20:40 | 16.95386 | -100.10244 | 14329 ft | 364 kts | 107° |
| 2026-04-23 20:40 | 16.94609 | -100.07755 | 13894 ft | 361 kts | 107° |
| 2026-04-23 20:40 | 16.93833 | -100.05269 | 13425 ft | 358 kts | 107° |
| 2026-04-23 20:40 | 16.93062 | -100.02805 | 12944 ft | 356 kts | 107° |
| 2026-04-23 20:41 | 16.92298 | -100.00358 | 12465 ft | 353 kts | 107° |
| 2026-04-23 20:41 | 16.91542 | -99.97929 | 11993 ft | 350 kts | 107° |
| 2026-04-23 20:41 | 16.91046 | -99.96331 | 11689 ft | 349 kts | 107° |
| 2026-04-23 20:41 | 16.90049 | -99.93122 | 11085 ft | 346 kts | 107° |
| 2026-04-23 20:42 | 16.89557 | -99.91546 | 10748 ft | 342 kts | 107° |
| 2026-04-23 20:42 | 16.88824 | -99.89198 | 10116 ft | 338 kts | 107° |
| 2026-04-23 20:42 | 16.88112 | -99.86920 | 9912 ft | 320 kts | 107° |
| 2026-04-23 20:42 | 16.87463 | -99.84848 | 9715 ft | 306 kts | 107° |
| 2026-04-23 20:43 | 16.86601 | -99.82090 | 9228 ft | 296 kts | 107° |
| 2026-04-23 20:43 | 16.86169 | -99.80708 | 8997 ft | 297 kts | 107° |
| 2026-04-23 20:43 | 16.85321 | -99.77988 | 8477 ft | 299 kts | 107° |
| 2026-04-23 20:43 | 16.84682 | -99.75934 | 8160 ft | 296 kts | 107° |
| 2026-04-23 20:44 | 16.84257 | -99.74572 | 7883 ft | 298 kts | 107° |
| 2026-04-23 20:44 | 16.83602 | -99.72477 | 7420 ft | 302 kts | 107° |
| 2026-04-23 20:44 | 16.82955 | -99.70413 | 7011 ft | 304 kts | 107° |
| 2026-04-23 20:44 | 16.82295 | -99.68311 | 6601 ft | 305 kts | 108° |
| 2026-04-23 20:45 | 16.81644 | -99.66232 | 6181 ft | 297 kts | 108° |
| 2026-04-23 20:45 | 16.81015 | -99.64222 | 5780 ft | 287 kts | 108° |
| 2026-04-23 20:45 | 16.80403 | -99.62273 | 5404 ft | 278 kts | 108° |
| 2026-04-23 20:45 | 16.79810 | -99.60380 | 5033 ft | 270 kts | 108° |
| 2026-04-23 20:46 | 16.79207 | -99.58551 | 4675 ft | 262 kts | 115° |
| 2026-04-23 20:46 | 16.78066 | -99.57158 | 4315 ft | 251 kts | 153° |
| 2026-04-23 20:46 | 16.76433 | -99.56751 | 3950 ft | 238 kts | 186° |
| 2026-04-23 20:46 | 16.74856 | -99.57103 | 3602 ft | 228 kts | 205° |
| 2026-04-23 20:47 | 16.73526 | -99.57920 | 3279 ft | 218 kts | 223° |
| 2026-04-23 20:47 | 16.72541 | -99.59069 | 2966 ft | 207 kts | 240° |
| 2026-04-23 20:47 | 16.71942 | -99.60394 | 2601 ft | 201 kts | 255° |
| 2026-04-23 20:47 | 16.71729 | -99.61832 | 2249 ft | 197 kts | 271° |
| 2026-04-23 20:48 | 16.71891 | -99.63160 | 2209 ft | 171 kts | 283° |
| 2026-04-23 20:48 | 16.72226 | -99.64272 | 2197 ft | 153 kts | 286° |
| 2026-04-23 20:48 | 16.72546 | -99.65289 | 2202 ft | 146 kts | 286° |
| 2026-04-23 20:48 | 16.72856 | -99.66277 | 2205 ft | 142 kts | 287° |
| 2026-04-23 20:49 | 16.73163 | -99.67254 | 2208 ft | 141 kts | 287° |
| 2026-04-23 20:49 | 16.73467 | -99.68223 | 2213 ft | 140 kts | 287° |
| 2026-04-23 20:49 | 16.73769 | -99.69187 | 2216 ft | 140 kts | 287° |
| 2026-04-23 20:49 | 16.74072 | -99.70153 | 2212 ft | 140 kts | 286° |
| 2026-04-23 20:50 | 16.74375 | -99.71119 | 2216 ft | 140 kts | 286° |
| 2026-04-23 20:50 | 16.74677 | -99.72082 | 2215 ft | 140 kts | 287° |
| 2026-04-23 20:50 | 16.74978 | -99.73044 | 2217 ft | 139 kts | 287° |
| 2026-04-23 20:50 | 16.75280 | -99.74007 | 2219 ft | 140 kts | 287° |
| 2026-04-23 20:51 | 16.75582 | -99.74972 | 2218 ft | 140 kts | 286° |
| 2026-04-23 20:51 | 16.75884 | -99.75937 | 2218 ft | 140 kts | 286° |
| 2026-04-23 20:51 | 16.76188 | -99.76907 | 2216 ft | 142 kts | 286° |
| 2026-04-23 20:51 | 16.76496 | -99.77890 | 2215 ft | 143 kts | 286° |
| 2026-04-23 20:52 | 16.76808 | -99.78885 | 2217 ft | 144 kts | 285° |
| 2026-04-23 20:52 | 16.77118 | -99.79875 | 2211 ft | 143 kts | 287° |
| 2026-04-23 20:52 | 16.77424 | -99.80853 | 2215 ft | 141 kts | 286° |
| 2026-04-23 20:52 | 16.77695 | -99.81813 | 2207 ft | 139 kts | 273° |
| 2026-04-23 20:53 | 16.77661 | -99.82835 | 2233 ft | 149 kts | 262° |
| 2026-04-23 20:53 | 16.77198 | -99.83813 | 2218 ft | 159 kts | 222° |
| 2026-04-23 20:53 | 16.76183 | -99.84454 | 2226 ft | 186 kts | 210° |
| 2026-04-23 20:53 | 16.74929 | -99.84933 | 2213 ft | 198 kts | 192° |
| 2026-04-23 20:54 | 16.73516 | -99.85013 | 2214 ft | 208 kts | 184° |
| 2026-04-23 20:54 | 16.72052 | -99.85008 | 2214 ft | 212 kts | 183° |
| 2026-04-23 20:54 | 16.70581 | -99.85000 | 2211 ft | 210 kts | 184° |
| 2026-04-23 20:54 | 16.69104 | -99.84977 | 2217 ft | 212 kts | 183° |
| 2026-04-23 20:55 | 16.67625 | -99.84956 | 2211 ft | 213 kts | 183° |
| 2026-04-23 20:55 | 16.66144 | -99.84925 | 2212 ft | 212 kts | 183° |
| 2026-04-23 20:55 | 16.64667 | -99.84890 | 2209 ft | 214 kts | 183° |
| 2026-04-23 20:55 | 16.63179 | -99.84845 | 2214 ft | 214 kts | 183° |
| 2026-04-23 20:56 | 16.61697 | -99.84649 | 2212 ft | 219 kts | 162° |
| 2026-04-23 20:56 | 16.60476 | -99.83679 | 2209 ft | 229 kts | 127° |
| 2026-04-23 20:56 | 16.59761 | -99.82189 | 2214 ft | 231 kts | 113° |
| 2026-04-23 20:56 | 16.59200 | -99.80645 | 2213 ft | 229 kts | 111° |
| 2026-04-23 20:57 | 16.58657 | -99.79089 | 2214 ft | 228 kts | 110° |
| 2026-04-23 20:57 | 16.58108 | -99.77540 | 2213 ft | 229 kts | 111° |
| 2026-04-23 20:57 | 16.57565 | -99.75973 | 2213 ft | 231 kts | 111° |
| 2026-04-23 20:57 | 16.57032 | -99.74392 | 2210 ft | 231 kts | 111° |
| 2026-04-23 20:58 | 16.56492 | -99.72808 | 2211 ft | 231 kts | 111° |
| 2026-04-23 20:58 | 16.55946 | -99.71242 | 2211 ft | 228 kts | 111° |
| 2026-04-23 20:58 | 16.55403 | -99.69693 | 2207 ft | 228 kts | 111° |
| 2026-04-23 20:58 | 16.54867 | -99.68142 | 2208 ft | 227 kts | 111° |
| 2026-04-23 20:59 | 16.54345 | -99.66587 | 2205 ft | 228 kts | 111° |
| 2026-04-23 20:59 | 16.53824 | -99.65020 | 2209 ft | 229 kts | 111° |
| 2026-04-23 20:59 | 16.53310 | -99.63459 | 2208 ft | 227 kts | 111° |
| 2026-04-23 20:59 | 16.52787 | -99.61902 | 2203 ft | 228 kts | 111° |
| 2026-04-23 21:00 | 16.52253 | -99.60347 | 2202 ft | 228 kts | 111° |
| 2026-04-23 21:00 | 16.51718 | -99.58798 | 2206 ft | 226 kts | 111° |
| 2026-04-23 21:00 | 16.51194 | -99.57254 | 2210 ft | 226 kts | 111° |
| 2026-04-23 21:00 | 16.50673 | -99.55715 | 2206 ft | 225 kts | 111° |
| 2026-04-23 21:01 | 16.50244 | -99.54155 | 2198 ft | 221 kts | 93° |
| 2026-04-23 21:01 | 16.50318 | -99.52622 | 2188 ft | 204 kts | 83° |
| 2026-04-23 21:01 | 16.50520 | -99.51203 | 2197 ft | 194 kts | 81° |
| 2026-04-23 21:01 | 16.50850 | -99.49862 | 2203 ft | 190 kts | 56° |
| 2026-04-23 21:02 | 16.51802 | -99.48961 | 2216 ft | 185 kts | 23° |
| 2026-04-23 21:02 | 16.52976 | -99.48443 | 2208 ft | 183 kts | 16° |
| 2026-04-23 21:02 | 16.54152 | -99.47998 | 2207 ft | 182 kts | 15° |
| 2026-04-23 21:02 | 16.55345 | -99.47559 | 2206 ft | 181 kts | 14° |
| 2026-04-23 21:03 | 16.56531 | -99.47120 | 2206 ft | 181 kts | 15° |
| 2026-04-23 21:03 | 16.57723 | -99.46688 | 2201 ft | 180 kts | 14° |
| 2026-04-23 21:03 | 16.58906 | -99.46249 | 2209 ft | 181 kts | 14° |
| 2026-04-23 21:03 | 16.60118 | -99.45967 | 2200 ft | 178 kts | 2° |
| 2026-04-23 21:04 | 16.61352 | -99.45816 | 2200 ft | 179 kts | 1° |
| 2026-04-23 21:04 | 16.62594 | -99.45726 | 2206 ft | 178 kts | 351° |
| 2026-04-23 21:04 | 16.63802 | -99.45887 | 2207 ft | 174 kts | 345° |
| 2026-04-23 21:04 | 16.64989 | -99.46140 | 2203 ft | 174 kts | 342° |
| 2026-04-23 21:05 | 16.66064 | -99.46644 | 2203 ft | 165 kts | 320° |
| 2026-04-23 21:05 | 16.66816 | -99.47444 | 2191 ft | 148 kts | 300° |
| 2026-04-23 21:05 | 16.67233 | -99.48389 | 2196 ft | 141 kts | 287° |
| 2026-04-23 21:05 | 16.67535 | -99.49348 | 2198 ft | 138 kts | 287° |
| 2026-04-23 21:06 | 16.67833 | -99.50295 | 2207 ft | 138 kts | 287° |
| 2026-04-23 21:06 | 16.68130 | -99.51238 | 2209 ft | 138 kts | 286° |
| 2026-04-23 21:06 | 16.68429 | -99.52185 | 2201 ft | 137 kts | 286° |
| 2026-04-23 21:06 | 16.68727 | -99.53134 | 2205 ft | 138 kts | 286° |
| 2026-04-23 21:07 | 16.69025 | -99.54081 | 2212 ft | 137 kts | 286° |
| 2026-04-23 21:07 | 16.69320 | -99.55020 | 2206 ft | 136 kts | 287° |
| 2026-04-23 21:07 | 16.69616 | -99.55962 | 2218 ft | 140 kts | 286° |
| 2026-04-23 21:07 | 16.69921 | -99.56933 | 2211 ft | 142 kts | 285° |
| 2026-04-23 21:08 | 16.70231 | -99.57919 | 2205 ft | 144 kts | 285° |
| 2026-04-23 21:08 | 16.70546 | -99.58919 | 2202 ft | 146 kts | 286° |
| 2026-04-23 21:08 | 16.70862 | -99.59927 | 2204 ft | 146 kts | 286° |
| 2026-04-23 21:08 | 16.71179 | -99.60936 | 2202 ft | 147 kts | 286° |
| 2026-04-23 21:09 | 16.71499 | -99.61953 | 2132 ft | 147 kts | 286° |
| 2026-04-23 21:09 | 16.71817 | -99.62965 | 1997 ft | 146 kts | 286° |
| 2026-04-23 21:09 | 16.72129 | -99.63961 | 1829 ft | 142 kts | 285° |
| 2026-04-23 21:09 | 16.72433 | -99.64927 | 1668 ft | 138 kts | 285° |
| 2026-04-23 21:10 | 16.72732 | -99.65881 | 1481 ft | 138 kts | 285° |
| 2026-04-23 21:10 | 16.73031 | -99.66833 | 1302 ft | 138 kts | 285° |
| 2026-04-23 21:10 | 16.73324 | -99.67769 | 1133 ft | 137 kts | 285° |
| 2026-04-23 21:10 | 16.73622 | -99.68718 | 967 ft | 138 kts | 285° |
| 2026-04-23 21:11 | 16.73932 | -99.69707 | 781 ft | 149 kts | 286° |
| 2026-04-23 21:11 | 16.74257 | -99.70745 | 588 ft | 151 kts | 285° |
| 2026-04-23 21:11 | 16.74587 | -99.71796 | 387 ft | 153 kts | 285° |
| 2026-04-23 21:11 | 16.74924 | -99.72860 | 224 ft | 154 kts | 285° |
| 2026-04-23 21:12 | 16.75247 | -99.73901 | 47 ft | 148 kts | 285° |
| 2026-04-23 21:12 | 16.75535 | -99.74846 | 22 ft | 107 kts | 285° |
| 2026-04-23 21:12 | 16.75692 | -99.75331 | 23 ft | 54 kts | 289° |
| 2026-04-23 21:12 | 16.75793 | -99.75639 | 25 ft | 41 kts | 289° |
| 2026-04-23 21:13 | 16.75870 | -99.75887 | 23 ft | 35 kts | 287° |
| 2026-04-23 21:13 | 16.75944 | -99.76118 | 21 ft | 33 kts | 288° |
| 2026-04-23 21:13 | 16.76039 | -99.76257 | 21 ft | 15 kts | 327° |
| 2026-04-23 21:13 | 16.76138 | -99.76246 | 21 ft | 16 kts | 35° |
| 2026-04-23 21:14 | 16.76147 | -99.76134 | 23 ft | 17 kts | 110° |
| 2026-04-23 21:14 | 16.76107 | -99.76008 | 21 ft | 20 kts | 108° |
| 2026-04-23 21:14 | 16.76062 | -99.75867 | 21 ft | 21 kts | 108° |
| 2026-04-23 21:14 | 16.76079 | -99.75765 | 22 ft | 12 kts | 65° |
| 2026-04-23 21:15 | 16.76073 | -99.75670 | 22 ft | 13 kts | 88° |
| 2026-04-23 21:15 | 16.76128 | -99.75630 | 21 ft | 8 kts | 19° |
| 2026-04-23 21:15 | 16.76162 | -99.75619 | 21 ft | 0 kts | 17° |